createdAt,value
2019-04-10T00:00:09.244Z,25.39
2019-04-10T00:03:25.605Z,25.39
2019-04-10T00:06:18.637Z,25.36
2019-04-10T00:09:23.173Z,25.36
2019-04-10T00:12:26.694Z,25.35
2019-04-10T00:15:30.681Z,25.34
2019-04-10T00:18:34.141Z,25.31
2019-04-10T00:21:37.719Z,25.34
2019-04-10T00:24:42.257Z,25.33
2019-04-10T00:27:45.753Z,25.33
2019-04-10T00:30:51.357Z,25.32
2019-04-10T00:33:56.937Z,25.32
2019-04-10T00:37:01.672Z,25.32
2019-04-10T00:40:06.804Z,25.30
2019-04-10T00:43:10.723Z,25.28
2019-04-10T00:46:14.345Z,25.30
2019-04-10T00:49:17.843Z,25.29
2019-04-10T00:52:22.362Z,25.27
2019-04-10T00:55:28.658Z,25.27
2019-04-10T00:58:32.226Z,25.29
2019-04-10T01:01:36.127Z,25.28
2019-04-10T01:04:42.558Z,25.26
2019-04-10T01:07:47.058Z,25.26
2019-04-10T01:10:50.751Z,25.27
2019-04-10T01:13:54.249Z,25.26
2019-04-10T01:16:57.881Z,25.27
2019-04-10T01:20:01.443Z,25.25
2019-04-10T01:23:05.840Z,25.25
2019-04-10T01:26:10.509Z,25.24
2019-04-10T01:29:14.197Z,25.20
2019-04-10T01:32:17.701Z,25.21
2019-04-10T01:35:22.483Z,25.22
2019-04-10T01:38:27.198Z,25.19
2019-04-10T01:41:32.711Z,25.21
2019-04-10T01:44:36.429Z,25.18
2019-04-10T01:47:40.132Z,25.19
2019-04-10T01:50:46.489Z,25.19
2019-04-10T01:53:51.030Z,25.18
2019-04-10T01:56:55.589Z,25.14
2019-04-10T01:59:59.247Z,25.15
2019-04-10T02:03:03.483Z,25.15
2019-04-10T02:06:07.307Z,25.14
2019-04-10T02:09:11.052Z,25.13
2019-04-10T02:12:14.610Z,25.16
2019-04-10T02:15:18.173Z,25.17
2019-04-10T02:18:21.695Z,25.15
2019-04-10T02:21:25.529Z,25.14
2019-04-10T02:24:30.125Z,25.14
2019-04-10T02:27:34.346Z,25.14
2019-04-10T02:30:39.606Z,25.11
2019-04-10T02:33:43.297Z,25.12
2019-04-10T02:36:48.810Z,25.12
2019-04-10T02:39:57.833Z,25.11
2019-04-10T02:42:59.124Z,25.12
2019-04-10T02:46:04.099Z,25.10
2019-04-10T02:49:08.303Z,25.10
2019-04-10T02:52:12.938Z,25.07
2019-04-10T02:55:18.536Z,25.09
2019-04-10T02:58:24.642Z,25.09
2019-04-10T03:01:28.311Z,25.06
2019-04-10T03:04:33.044Z,25.08
2019-04-10T03:07:36.751Z,25.06
2019-04-10T03:10:47.827Z,25.06
2019-04-10T03:13:47.172Z,25.05
2019-04-10T03:16:51.464Z,25.06
2019-04-10T03:19:56.074Z,25.05
2019-04-10T03:23:00.891Z,25.04
2019-04-10T03:26:05.637Z,25.04
2019-04-10T03:29:10.058Z,25.05
2019-04-10T03:32:36.274Z,25.02
2019-04-10T03:35:41.099Z,25.02
2019-04-10T03:38:55.455Z,25.01
2019-04-10T03:41:50.710Z,25.00
2019-04-10T03:44:54.869Z,25.01
2019-04-10T03:47:59.992Z,25.00
2019-04-10T03:51:03.951Z,24.99
2019-04-10T03:54:07.575Z,24.99
2019-04-10T03:57:12.083Z,24.98
2019-04-10T04:00:16.193Z,24.97
2019-04-10T04:03:20.422Z,24.97
2019-04-10T04:06:23.918Z,24.94
2019-04-10T04:09:27.551Z,24.94
2019-04-10T04:12:32.823Z,24.92
2019-04-10T04:15:36.366Z,24.94
2019-04-10T04:18:39.863Z,24.89
2019-04-10T04:21:43.941Z,24.92
2019-04-10T04:24:48.202Z,24.93
2019-04-10T04:27:51.887Z,24.93
2019-04-10T04:30:55.322Z,24.93
2019-04-10T04:33:59.771Z,24.89
2019-04-10T04:37:04.399Z,24.89
2019-04-10T04:40:09.059Z,24.89
2019-04-10T04:43:12.594Z,24.90
2019-04-10T04:46:16.223Z,24.90
2019-04-10T04:49:20.694Z,24.88
2019-04-10T04:52:24.331Z,24.85
2019-04-10T04:55:28.933Z,24.85
2019-04-10T04:58:32.551Z,24.84
2019-04-10T05:01:38.300Z,24.83
2019-04-10T05:04:42.061Z,24.86
2019-04-10T05:07:54.774Z,24.85
2019-04-10T05:10:50.852Z,24.87
2019-04-10T05:13:55.849Z,24.84
2019-04-10T05:16:59.579Z,24.83
2019-04-10T05:20:03.040Z,24.81
2019-04-10T05:23:06.541Z,24.83
2019-04-10T05:26:10.242Z,24.86
2019-04-10T05:29:13.903Z,24.85
2019-04-10T05:32:17.856Z,24.83
2019-04-10T05:35:21.551Z,24.83
2019-04-10T05:38:25.040Z,24.83
2019-04-10T05:41:29.370Z,24.84
2019-04-10T05:44:33.934Z,24.83
2019-04-10T05:47:38.688Z,24.83
2019-04-10T05:50:53.150Z,24.84
2019-04-10T05:53:49.896Z,24.83
2019-04-10T05:56:53.017Z,24.84
2019-04-10T05:59:56.510Z,24.83
2019-04-10T06:03:00.479Z,24.82
2019-04-10T06:06:06.995Z,24.81
2019-04-10T06:09:12.947Z,24.82
2019-04-10T06:12:16.435Z,24.81
2019-04-10T06:15:21.140Z,24.82
2019-04-10T06:18:24.666Z,24.82
2019-04-10T06:21:28.783Z,24.83
2019-04-10T06:24:33.323Z,24.83
2019-04-10T06:27:36.825Z,24.83
2019-04-10T06:30:40.326Z,24.81
2019-04-10T06:33:44.392Z,24.82
2019-04-10T06:36:49.328Z,24.80
2019-04-10T06:40:05.053Z,24.81
2019-04-10T06:42:59.375Z,24.82
2019-04-10T06:46:02.943Z,24.79
2019-04-10T06:49:07.806Z,24.81
2019-04-10T06:52:11.782Z,24.81
2019-04-10T06:55:15.428Z,24.80
2019-04-10T06:58:20.133Z,24.80
2019-04-10T07:01:26.151Z,24.80
2019-04-10T07:04:41.436Z,24.81
2019-04-10T07:07:45.470Z,24.78
2019-04-10T07:10:49.755Z,24.83
2019-04-10T07:13:47.552Z,24.90
2019-04-10T07:16:51.068Z,24.93
2019-04-10T07:19:55.605Z,24.93
2019-04-10T07:23:00.310Z,24.96
2019-04-10T07:26:04.294Z,24.97
2019-04-10T07:29:08.813Z,24.99
2019-04-10T07:32:13.379Z,25.01
2019-04-10T07:35:21.475Z,25.01
2019-04-10T07:38:24.585Z,25.05
2019-04-10T07:41:29.262Z,25.07
2019-04-10T07:44:32.815Z,25.09
2019-04-10T07:47:36.329Z,25.10
2019-04-10T07:50:39.822Z,25.10
2019-04-10T07:53:43.597Z,25.11
2019-04-10T07:56:47.337Z,25.14
2019-04-10T07:59:50.929Z,25.15
2019-04-10T08:02:55.349Z,25.17
2019-04-10T08:06:00.380Z,25.20
2019-04-10T08:09:05.557Z,25.21
2019-04-10T08:12:09.298Z,25.21
2019-04-10T08:15:13.961Z,25.23
2019-04-10T08:18:17.472Z,25.25
2019-04-10T08:21:21.845Z,25.26
2019-04-10T08:24:25.904Z,25.28
2019-04-10T08:27:29.953Z,25.29
2019-04-10T08:30:34.204Z,25.28
2019-04-10T08:33:38.630Z,25.28
2019-04-10T08:36:42.379Z,25.29
2019-04-10T08:39:48.922Z,25.30
2019-04-10T08:42:51.380Z,25.30
2019-04-10T08:45:55.080Z,25.31
2019-04-10T08:48:58.496Z,25.31
2019-04-10T08:52:03.952Z,25.34
2019-04-10T08:55:08.588Z,25.34
2019-04-10T08:58:12.198Z,25.34
2019-04-10T09:01:17.423Z,25.38
2019-04-10T09:04:21.186Z,25.38
2019-04-10T09:07:24.796Z,25.37
2019-04-10T09:10:28.307Z,25.36
2019-04-10T09:13:32.671Z,25.38
2019-04-10T09:16:39.588Z,25.39
2019-04-10T09:19:43.043Z,25.40
2019-04-10T09:23:10.333Z,25.40
2019-04-10T09:25:53.820Z,25.41
2019-04-10T09:28:59.611Z,25.43
2019-04-10T09:32:04.367Z,25.44
2019-04-10T09:35:08.794Z,25.45
2019-04-10T09:38:14.704Z,25.46
2019-04-10T09:41:19.287Z,25.47
2019-04-10T09:44:33.297Z,25.47
2019-04-10T09:47:36.941Z,25.50
2019-04-10T09:50:41.560Z,25.48
2019-04-10T09:53:45.495Z,25.51
2019-04-10T09:56:49.284Z,25.51
2019-04-10T09:59:52.767Z,25.52
2019-04-10T10:02:57.298Z,25.54
2019-04-10T10:06:03.601Z,25.55
2019-04-10T10:09:08.381Z,25.55
2019-04-10T10:12:12.071Z,25.55
2019-04-10T10:15:16.765Z,25.55
2019-04-10T10:18:21.387Z,25.56
2019-04-10T10:21:26.080Z,25.58
2019-04-10T10:24:30.808Z,25.57
2019-04-10T10:27:35.689Z,25.60
2019-04-10T10:30:39.747Z,25.59
2019-04-10T10:33:43.330Z,25.60
2019-04-10T10:36:50.554Z,25.62
2019-04-10T10:39:52.983Z,25.62
2019-04-10T10:42:56.479Z,25.63
2019-04-10T10:46:00.945Z,25.65
2019-04-10T10:49:04.522Z,25.66
2019-04-10T10:52:09.056Z,25.68
2019-04-10T10:55:13.587Z,25.70
2019-04-10T10:58:18.251Z,25.74
2019-04-10T11:01:22.133Z,25.75
2019-04-10T11:04:25.505Z,25.77
2019-04-10T11:07:29.014Z,25.77
2019-04-10T11:10:33.729Z,25.80
2019-04-10T11:13:37.268Z,25.82
2019-04-10T11:16:41.111Z,25.85
2019-04-10T11:19:45.585Z,25.87
2019-04-10T11:22:50.244Z,25.88
2019-04-10T11:25:55.193Z,25.89
2019-04-10T11:28:59.146Z,25.91
2019-04-10T11:32:04.128Z,25.93
2019-04-10T11:35:08.923Z,25.95
2019-04-10T11:38:13.387Z,25.97
2019-04-10T11:41:18.974Z,25.98
2019-04-10T11:44:22.507Z,25.98
2019-04-10T11:47:29.171Z,26.03
2019-04-10T11:50:34.586Z,26.03
2019-04-10T11:53:42.342Z,26.04
2019-04-10T11:56:48.251Z,26.06
2019-04-10T11:59:49.621Z,26.07
2019-04-10T12:02:56.584Z,26.11
2019-04-10T12:05:59.817Z,26.13
2019-04-10T12:09:45.040Z,26.15
2019-04-10T12:12:14.347Z,26.16
2019-04-10T12:15:18.544Z,26.16
2019-04-10T12:18:22.570Z,26.17
2019-04-10T12:21:26.307Z,26.17
2019-04-10T12:24:30.058Z,26.20
2019-04-10T12:27:33.635Z,26.19
2019-04-10T12:30:37.425Z,26.17
2019-04-10T12:33:41.032Z,26.25
2019-04-10T12:36:46.862Z,26.28
2019-04-10T12:39:50.501Z,26.34
2019-04-10T12:42:55.090Z,26.34
2019-04-10T12:45:58.524Z,26.35
2019-04-10T12:49:03.553Z,26.39
2019-04-10T12:52:08.026Z,26.40
2019-04-10T12:55:12.300Z,26.41
2019-04-10T12:58:17.737Z,26.45
2019-04-10T13:01:21.147Z,26.45
2019-04-10T13:04:24.760Z,26.48
2019-04-10T13:07:29.492Z,26.52
2019-04-10T13:10:33.625Z,26.54
2019-04-10T13:13:38.009Z,26.57
2019-04-10T13:16:42.728Z,26.61
2019-04-10T13:19:46.253Z,26.63
2019-04-10T13:22:50.677Z,26.66
2019-04-10T13:25:58.359Z,26.67
2019-04-10T13:29:00.658Z,26.67
2019-04-10T13:32:05.547Z,26.69
2019-04-10T13:35:10.236Z,26.71
2019-04-10T13:38:24.861Z,26.72
2019-04-10T13:41:20.742Z,26.71
2019-04-10T13:44:24.495Z,26.76
2019-04-10T13:47:29.115Z,26.77
2019-04-10T13:50:33.254Z,26.81
2019-04-10T13:53:37.704Z,26.82
2019-04-10T13:56:41.647Z,26.79
2019-04-10T13:59:45.565Z,26.82
2019-04-10T14:02:50.020Z,26.85
2019-04-10T14:05:54.797Z,26.87
2019-04-10T14:09:19.390Z,26.89
2019-04-10T14:12:04.321Z,26.91
2019-04-10T14:15:07.867Z,26.93
2019-04-10T14:18:12.316Z,26.94
2019-04-10T14:21:17.287Z,26.95
2019-04-10T14:24:21.983Z,26.94
2019-04-10T14:27:27.942Z,26.93
2019-04-10T14:30:35.636Z,26.95
2019-04-10T14:33:39.982Z,27.01
2019-04-10T14:36:44.317Z,27.03
2019-04-10T14:39:47.954Z,27.04
2019-04-10T14:42:51.515Z,27.05
2019-04-10T14:45:55.108Z,27.07
2019-04-10T14:48:58.631Z,27.06
2019-04-10T14:52:03.206Z,27.07
2019-04-10T14:55:08.681Z,27.10
2019-04-10T14:58:20.895Z,27.10
2019-04-10T15:01:17.771Z,27.11
2019-04-10T15:04:22.263Z,27.08
2019-04-10T15:07:27.458Z,27.05
2019-04-10T15:10:31.093Z,27.05
2019-04-10T15:13:36.165Z,27.07
2019-04-10T15:16:42.091Z,27.07
2019-04-10T15:19:49.514Z,27.08
2019-04-10T15:22:52.702Z,27.07
2019-04-10T15:25:56.205Z,27.06
2019-04-10T15:29:00.766Z,27.03
2019-04-10T15:32:04.404Z,27.03
2019-04-10T15:35:08.385Z,27.05
2019-04-10T15:38:12.047Z,27.04
2019-04-10T15:41:16.942Z,27.06
2019-04-10T15:44:21.769Z,27.04
2019-04-10T15:47:25.408Z,27.03
2019-04-10T15:50:28.977Z,27.03
2019-04-10T15:53:32.418Z,27.03
2019-04-10T15:56:36.178Z,27.03
2019-04-10T15:59:40.764Z,27.03
2019-04-10T16:02:44.794Z,27.04
2019-04-10T16:05:50.177Z,27.06
2019-04-10T16:08:53.823Z,27.07
2019-04-10T16:12:02.702Z,27.05
2019-04-10T16:15:06.475Z,27.04
2019-04-10T16:18:13.743Z,27.03
2019-04-10T16:21:18.113Z,27.02
2019-04-10T16:24:22.877Z,27.00
2019-04-10T16:27:26.505Z,27.02
2019-04-10T16:30:31.281Z,27.04
2019-04-10T16:33:35.735Z,27.03
2019-04-10T16:36:39.508Z,27.03
2019-04-10T16:39:42.970Z,27.02
2019-04-10T16:42:46.798Z,27.03
2019-04-10T16:45:51.002Z,27.02
2019-04-10T16:48:54.509Z,27.04
2019-04-10T16:51:58.746Z,27.04
2019-04-10T16:55:02.899Z,27.04
2019-04-10T16:58:07.574Z,27.04
2019-04-10T17:01:12.579Z,27.04
2019-04-10T17:04:16.789Z,27.03
2019-04-10T17:07:21.075Z,27.01
2019-04-10T17:10:27.680Z,27.01
2019-04-10T17:13:31.537Z,27.02
2019-04-10T17:16:35.030Z,26.99
2019-04-10T17:19:48.902Z,27.01
2019-04-10T17:22:47.209Z,27.00
2019-04-10T17:25:49.223Z,27.01
2019-04-10T17:28:52.713Z,26.99
2019-04-10T17:31:57.116Z,26.99
2019-04-10T17:35:00.994Z,26.98
2019-04-10T17:38:04.749Z,26.96
2019-04-10T17:41:09.163Z,26.93
2019-04-10T17:44:13.732Z,26.94
2019-04-10T17:47:17.609Z,26.91
2019-04-10T17:50:22.509Z,26.90
2019-04-10T17:53:26.151Z,26.92
2019-04-10T17:56:30.454Z,26.92
2019-04-10T17:59:34.301Z,26.92
2019-04-10T18:02:38.929Z,26.93
2019-04-10T18:05:42.705Z,26.92
2019-04-10T18:08:47.190Z,26.89
2019-04-10T18:11:50.775Z,26.89
2019-04-10T18:14:55.449Z,26.88
2019-04-10T18:17:59.720Z,26.89
2019-04-10T18:21:04.473Z,26.88
2019-04-10T18:24:08.219Z,26.87
2019-04-10T18:27:12.264Z,26.84
2019-04-10T18:30:16.215Z,26.84
2019-04-10T18:33:20.406Z,26.86
2019-04-10T18:36:24.335Z,26.85
2019-04-10T18:39:28.014Z,26.83
2019-04-10T18:42:31.481Z,26.83
2019-04-10T18:45:35.588Z,26.84
2019-04-10T18:48:39.313Z,26.84
2019-04-10T18:51:42.809Z,26.84
2019-04-10T18:54:46.264Z,26.83
2019-04-10T18:57:51.426Z,26.82
2019-04-10T19:01:20.981Z,26.82
2019-04-10T19:04:47.591Z,26.81
2019-04-10T19:07:51.340Z,26.79
2019-04-10T19:11:09.428Z,26.77
2019-04-10T19:14:01.388Z,26.81
2019-04-10T19:17:07.177Z,26.80
2019-04-10T19:20:11.116Z,26.77
2019-04-10T19:23:15.062Z,26.80
2019-04-10T19:26:23.065Z,26.76
2019-04-10T19:29:27.587Z,26.76
2019-04-10T19:32:35.286Z,26.76
2019-04-10T19:35:39.251Z,26.75
2019-04-10T19:38:43.326Z,26.75
2019-04-10T19:41:47.017Z,26.75
2019-04-10T19:44:51.006Z,26.74
2019-04-10T19:47:54.768Z,26.71
2019-04-10T19:50:59.571Z,26.73
2019-04-10T19:54:05.685Z,26.75
2019-04-10T19:57:09.000Z,26.73
2019-04-10T20:00:12.649Z,26.68
2019-04-10T20:03:16.026Z,26.64
2019-04-10T20:06:21.349Z,26.62
2019-04-10T20:09:24.904Z,26.58
2019-04-10T20:12:28.727Z,26.56
2019-04-10T20:15:32.344Z,26.55
2019-04-10T20:18:36.712Z,26.53
2019-04-10T20:21:40.547Z,26.52
2019-04-10T20:24:44.941Z,26.50
2019-04-10T20:27:50.101Z,26.48
2019-04-10T20:30:56.180Z,26.46
2019-04-10T20:33:59.192Z,26.44
2019-04-10T20:37:07.638Z,26.43
2019-04-10T20:40:08.101Z,26.42
2019-04-10T20:43:11.611Z,26.40
2019-04-10T20:46:15.113Z,26.38
2019-04-10T20:49:18.607Z,26.36
2019-04-10T20:52:22.156Z,26.35
2019-04-10T20:55:25.849Z,26.33
2019-04-10T20:58:29.503Z,26.31
2019-04-10T21:01:35.087Z,26.29
2019-04-10T21:04:39.609Z,26.27
2019-04-10T21:07:44.119Z,26.26
2019-04-10T21:10:47.612Z,26.24
2019-04-10T21:13:51.108Z,26.22
2019-04-10T21:16:56.135Z,26.22
2019-04-10T21:20:00.115Z,26.19
2019-04-10T21:23:03.614Z,26.18
2019-04-10T21:26:08.142Z,26.16
2019-04-10T21:29:16.373Z,26.14
2019-04-10T21:32:55.791Z,26.10
2019-04-10T21:35:59.765Z,26.11
2019-04-10T21:39:05.250Z,26.09
2019-04-10T21:42:16.786Z,26.07
2019-04-10T21:45:14.052Z,26.06
2019-04-10T21:48:17.532Z,26.04
2019-04-10T21:51:21.188Z,26.03
2019-04-10T21:54:26.881Z,26.03
2019-04-10T21:57:30.722Z,26.02
2019-04-10T22:01:01.368Z,26.00
2019-04-10T22:04:06.420Z,25.99
2019-04-10T22:07:23.811Z,25.98
2019-04-10T22:10:32.234Z,25.95
2019-04-10T22:13:35.856Z,25.94
2019-04-10T22:16:39.331Z,25.92
2019-04-10T22:19:43.137Z,25.93
2019-04-10T22:22:47.072Z,25.90
2019-04-10T22:25:52.141Z,25.89
2019-04-10T22:28:56.904Z,25.88
2019-04-10T22:32:00.503Z,25.88
2019-04-10T22:35:05.143Z,25.87
2019-04-10T22:38:09.010Z,25.85
2019-04-10T22:41:23.755Z,25.83
2019-04-10T22:44:17.896Z,25.81
2019-04-10T22:47:21.604Z,25.80
2019-04-10T22:50:25.102Z,25.79
2019-04-10T22:53:28.938Z,25.77
2019-04-10T22:56:33.592Z,25.77
2019-04-10T22:59:38.251Z,25.77
2019-04-10T23:02:42.207Z,25.76
2019-04-10T23:05:46.847Z,25.74
2019-04-10T23:08:51.602Z,25.73
2019-04-10T23:11:56.496Z,25.72
2019-04-10T23:15:00.848Z,25.71
2019-04-10T23:18:05.487Z,25.70
2019-04-10T23:21:09.214Z,25.68
2019-04-10T23:24:13.613Z,25.68
2019-04-10T23:27:17.698Z,25.65
2019-04-10T23:30:21.543Z,25.65
2019-04-10T23:33:26.038Z,25.65
2019-04-10T23:36:31.882Z,25.65
2019-04-10T23:39:36.493Z,25.64
2019-04-10T23:42:41.282Z,25.63
2019-04-10T23:45:44.749Z,25.61
2019-04-10T23:48:49.903Z,25.61
2019-04-10T23:51:53.697Z,25.59
2019-04-10T23:54:57.596Z,25.58
2019-04-10T23:58:02.137Z,25.58
